Terminal Aerodrome Forecast
Issued by NWS

Home | Current Version | Previous Version | Text Only | Print | Product List | Glossary On
Versions: 1 2 3 4 5 6 7 8 9 10 11 12 13 14 15 16 17 18 19 20 21 22 23 24 25 26
000
FTUS42 KRAH 311747 CCA
TAFINT
TAF COR
KINT 311747Z 3118/0118 17004KT P6SM VCTS BKN035CB OVC200
     FM311900 17004KT P6SM VCSH BKN035 OVC200
     FM010200 VRB03KT 6SM -SHRA BR OVC035
     FM010900 VRB04KT 5SM RA BR OVC008=

USA.gov is the U.S. government's official web portal to all federal, state and local government web resources and services.